Time;durP1;ratioP1;P1;durP2;ratioP2;P2;SDS_P1;SDS_P2;PMS_P1;PMS_P2;Temp;Humidity;BMP_temperature;BMP_pressure;BME280_temperature;BME280_humidity;BME280_pressure;Samples;Min_cycle;Max_cycle;Signal;HPM_P1;HPM_P2
2022/09/24 07:05:02;;;;;;;3.58;1.00;;;;;;;;;;533527;27;20169;-80
2022/09/24 07:05:17;;;;;;;3.05;1.08;;;;;;;;;;527964;27;1324;-83
2022/09/24 07:05:33;;;;;;;3.57;1.10;;;;;;;;;;530579;28;1270;-82
2022/09/24 07:05:48;;;;;;;5.68;1.20;;;;;;;;;;529689;28;1372;-82
2022/09/24 07:06:05;;;;;;;3.92;1.30;;;;;;;;;;527095;28;1460;-83
2022/09/24 07:06:20;;;;;;;3.97;1.20;;;;;;;;;;526877;28;1267;-82
2022/09/24 07:07:28;;;;;;;2.33;1.10;;;;;;;;;;527229;28;927;-79
2022/09/24 07:07:43;;;;;;;5.32;1.00;;;;;;;;;;529208;28;1262;-81
2022/09/24 07:08:01;;;;;;;2.50;1.10;;;;;;;;;;531502;28;1140;-80
2022/09/24 07:08:17;;;;;;;3.13;1.10;;;;;;;;;;532091;27;1148;-81
2022/09/24 07:08:32;;;;;;;3.25;1.10;;;;;;;;;;531493;27;1236;-81
2022/09/24 07:08:50;;;;;;;3.10;1.10;;;;;;;;;;530345;28;1251;-81
2022/09/24 07:09:05;;;;;;;2.60;1.10;;;;;;;;;;526555;28;1374;-81
2022/09/24 07:09:21;;;;;;;3.28;1.13;;;;;;;;;;524572;28;1168;-81
2022/09/24 07:09:39;;;;;;;3.70;1.30;;;;;;;;;;524709;28;1204;-82
2022/09/24 07:09:55;;;;;;;3.42;1.30;;;;;;;;;;526063;28;1058;-81
2022/09/24 07:10:10;;;;;;;2.47;1.23;;;;;;;;;;525849;28;1139;-81
2022/09/24 07:10:26;;;;;;;1.38;1.00;;;;;;;;;;527651;28;1263;-81
2022/09/24 07:10:47;;;;;;;1.98;1.00;;;;;;;;;;526950;28;1162;-84
2022/09/24 07:11:03;;;;;;;2.67;1.00;;;;;;;;;;525921;28;1424;-84
2022/09/24 07:11:18;;;;;;;3.27;1.10;;;;;;;;;;524251;28;1289;-84
2022/09/24 07:11:35;;;;;;;3.07;1.10;;;;;;;;;;527017;28;1057;-81
2022/09/24 07:11:51;;;;;;;3.58;1.08;;;;;;;;;;527073;27;971;-81
2022/09/24 07:12:07;;;;;;;3.85;1.10;;;;;;;;;;526137;28;1361;-81
2022/09/24 07:12:23;;;;;;;1.85;1.00;;;;;;;;;;520967;28;1469;-81
2022/09/24 12:42:10;;;;;;;9.93;3.57;;;;;;;;;;173559;27;10002639;-68
2022/09/24 12:42:33;;;;;;;7.82;3.80;;;;;;;;;;530015;27;1732;-62
2022/09/24 12:42:54;;;;;;;7.28;3.92;;;;;;;;;;530740;27;1167;-63
2022/09/24 12:43:27;;;;;;;7.55;3.72;;;;;;;;;;528196;27;1408;-64
2022/09/24 12:43:57;;;;;;;5.88;3.88;;;;;;;;;;528574;27;1187;-64
2022/09/24 12:44:19;;;;;;;6.22;3.83;;;;;;;;;;528722;27;1170;-64
2022/09/24 12:44:43;;;;;;;7.72;4.07;;;;;;;;;;529374;27;1441;-64
2022/09/24 12:45:00;;;;;;;5.90;3.90;;;;;;;;;;528750;27;1239;-64
2022/09/24 12:45:21;;;;;;;5.40;3.70;;;;;;;;;;522583;27;3988;-64
2022/09/24 12:45:36;;;;;;;6.95;4.00;;;;;;;;;;521603;28;1068;-64
2022/09/24 12:45:55;;;;;;;8.27;3.90;;;;;;;;;;521914;28;1074;-64
2022/09/24 12:46:44;;;;;;;9.02;3.83;;;;;;;;;;522177;28;1802;-65
2022/09/24 12:47:00;;;;;;;4.03;3.33;;;;;;;;;;522179;28;1344;-63
2022/09/24 12:47:22;;;;;;;4.22;3.28;;;;;;;;;;522673;28;1317;-64
2022/09/24 12:47:57;;;;;;;6.50;3.60;;;;;;;;;;522894;28;1036;-64
2022/09/24 12:48:15;;;;;;;5.45;3.63;;;;;;;;;;522894;28;1277;-63
2022/09/24 12:48:36;;;;;;;6.20;3.65;;;;;;;;;;521518;28;1419;-64
2022/09/24 12:48:53;;;;;;;6.45;3.55;;;;;;;;;;522876;28;1213;-64
2022/09/24 12:49:23;;;;;;;6.72;3.33;;;;;;;;;;524116;28;1569;-64
2022/09/24 12:49:39;;;;;;;6.78;3.78;;;;;;;;;;523451;28;1280;-64
2022/09/24 12:49:58;;;;;;;6.37;3.80;;;;;;;;;;523574;28;1412;-64
2022/09/24 12:50:33;;;;;;;8.38;3.72;;;;;;;;;;521972;28;1038;-64
2022/09/24 12:50:57;;;;;;;7.32;3.80;;;;;;;;;;521880;28;1190;-64
2022/09/24 12:51:14;;;;;;;6.82;3.50;;;;;;;;;;521955;28;1335;-64
2022/09/24 12:51:37;;;;;;;6.15;3.70;;;;;;;;;;522238;28;1082;-64
2022/09/24 12:51:55;;;;;;;6.18;3.80;;;;;;;;;;523001;28;1176;-66
2022/09/24 12:52:23;;;;;;;5.07;3.70;;;;;;;;;;523240;28;1284;-66
2022/09/24 12:52:42;;;;;;;7.15;4.07;;;;;;;;;;522216;28;1218;-66
2022/09/24 12:52:58;;;;;;;6.25;3.95;;;;;;;;;;521072;28;1522;-65
2022/09/24 12:53:23;;;;;;;5.00;3.58;;;;;;;;;;522659;28;1415;-65
2022/09/24 12:53:53;;;;;;;4.60;3.08;;;;;;;;;;523305;28;1233;-65
2022/09/24 12:54:31;;;;;;;4.65;3.30;;;;;;;;;;523405;28;1355;-66
2022/09/24 12:54:55;;;;;;;6.22;3.40;;;;;;;;;;524306;28;1560;-66
2022/09/24 12:55:22;;;;;;;5.68;3.17;;;;;;;;;;521915;28;1443;-66
2022/09/24 12:55:44;;;;;;;5.97;3.33;;;;;;;;;;522363;28;1254;-65
2022/09/24 12:56:01;;;;;;;5.10;3.60;;;;;;;;;;521564;28;1360;-65
2022/09/24 12:56:25;;;;;;;7.78;3.90;;;;;;;;;;519518;28;1358;-65
2022/09/24 12:56:41;;;;;;;6.63;3.83;;;;;;;;;;518938;28;1082;-65
2022/09/24 12:57:16;;;;;;;5.80;3.70;;;;;;;;;;522368;28;1704;-66
2022/09/24 12:57:35;;;;;;;8.50;3.88;;;;;;;;;;520842;28;1168;-66
2022/09/24 12:57:53;;;;;;;8.65;3.72;;;;;;;;;;522676;28;1225;-66
2022/09/24 12:58:28;;;;;;;7.38;4.00;;;;;;;;;;520291;28;1574;-65
2022/09/24 12:58:44;;;;;;;8.40;4.22;;;;;;;;;;522711;28;1241;-65
2022/09/24 12:58:59;;;;;;;8.70;4.10;;;;;;;;;;521676;28;1200;-65
2022/09/24 12:59:26;;;;;;;9.05;3.90;;;;;;;;;;523960;28;1138;-65
2022/09/24 12:59:53;;;;;;;6.90;4.00;;;;;;;;;;522323;28;1105;-66
2022/09/24 13:00:30;;;;;;;7.72;3.83;;;;;;;;;;519685;28;1449;-65
2022/09/24 13:00:46;;;;;;;6.25;4.40;;;;;;;;;;522168;28;4473;-65
2022/09/24 13:01:24;;;;;;;7.13;4.00;;;;;;;;;;521571;28;1208;-66
2022/09/24 13:01:39;;;;;;;8.13;4.15;;;;;;;;;;516505;28;1590;-66
2022/09/24 13:02:12;;;;;;;7.13;4.00;;;;;;;;;;520278;28;1995;-65
2022/09/24 13:02:50;;;;;;;8.35;3.90;;;;;;;;;;524602;28;1331;-65
2022/09/24 13:03:26;;;;;;;7.40;3.72;;;;;;;;;;526458;27;1432;-65
2022/09/24 13:03:41;;;;;;;5.85;3.65;;;;;;;;;;526684;27;1351;-65
2022/09/24 13:04:13;;;;;;;6.40;3.70;;;;;;;;;;527185;27;1143;-66
2022/09/24 13:04:28;;;;;;;6.50;3.70;;;;;;;;;;524987;28;1235;-65
2022/09/24 13:04:50;;;;;;;6.53;3.80;;;;;;;;;;523327;28;1334;-65
2022/09/24 13:05:26;;;;;;;9.02;4.13;;;;;;;;;;523577;28;1411;-65
2022/09/24 13:05:41;;;;;;;5.85;3.63;;;;;;;;;;523232;28;1205;-65
2022/09/24 13:05:59;;;;;;;5.30;3.47;;;;;;;;;;521515;28;1304;-65
2022/09/24 13:06:22;;;;;;;6.90;3.38;;;;;;;;;;522419;28;1333;-67
2022/09/24 13:06:38;;;;;;;8.60;3.80;;;;;;;;;;523949;28;1313;-65
2022/09/24 13:06:54;;;;;;;6.00;3.70;;;;;;;;;;523552;28;1106;-66
2022/09/24 13:07:31;;;;;;;6.13;3.65;;;;;;;;;;524554;28;1363;-66
2022/09/24 13:08:06;;;;;;;6.32;3.50;;;;;;;;;;525234;28;1326;-65
2022/09/24 13:08:23;;;;;;;6.60;3.55;;;;;;;;;;523436;28;1095;-65
2022/09/24 13:08:40;;;;;;;6.00;3.55;;;;;;;;;;524700;28;1390;-65
2022/09/24 13:08:55;;;;;;;6.32;3.55;;;;;;;;;;523690;28;1464;-65
2022/09/24 13:09:27;;;;;;;4.68;3.40;;;;;;;;;;522625;28;1145;-65
2022/09/24 13:09:43;;;;;;;3.80;3.10;;;;;;;;;;523352;28;1155;-65
2022/09/24 13:10:22;;;;;;;4.40;3.33;;;;;;;;;;523517;28;1252;-65
2022/09/24 13:10:38;;;;;;;6.22;3.33;;;;;;;;;;524456;27;1869;-65
2022/09/24 13:11:05;;;;;;;5.45;3.17;;;;;;;;;;527161;27;1429;-65
2022/09/24 13:11:35;;;;;;;6.85;3.30;;;;;;;;;;527134;27;1191;-65
2022/09/24 13:12:01;;;;;;;5.97;3.60;;;;;;;;;;525957;27;1377;-65
2022/09/24 13:12:17;;;;;;;6.20;3.65;;;;;;;;;;527509;27;1267;-66
2022/09/24 13:12:32;;;;;;;5.15;3.55;;;;;;;;;;523325;28;1510;-65
2022/09/24 13:12:48;;;;;;;4.05;3.13;;;;;;;;;;525054;28;1164;-65
2022/09/24 13:13:22;;;;;;;4.35;2.95;;;;;;;;;;522496;28;1403;-66
2022/09/24 13:13:43;;;;;;;4.38;3.00;;;;;;;;;;522575;28;1245;-65
2022/09/24 13:14:20;;;;;;;5.20;3.20;;;;;;;;;;521619;28;1156;-65
2022/09/24 13:14:36;;;;;;;5.85;3.60;;;;;;;;;;523352;28;1089;-66
2022/09/24 13:15:00;;;;;;;5.53;3.50;;;;;;;;;;525677;28;1370;-66
2022/09/24 13:15:38;;;;;;;6.30;3.63;;;;;;;;;;522864;28;4040;-65
2022/09/24 13:16:18;;;;;;;8.18;3.72;;;;;;;;;;525420;28;1331;-66
2022/09/24 13:16:38;;;;;;;5.07;3.63;;;;;;;;;;514376;28;1344;-65
2022/09/24 13:16:55;;;;;;;6.20;3.90;;;;;;;;;;522857;28;1094;-66
2022/09/24 13:17:13;;;;;;;5.60;3.70;;;;;;;;;;523156;28;1285;-65
2022/09/24 13:17:33;;;;;;;7.82;4.00;;;;;;;;;;522110;28;1201;-65
2022/09/24 13:18:07;;;;;;;7.80;3.88;;;;;;;;;;524624;28;1363;-66
2022/09/24 13:18:23;;;;;;;7.70;4.10;;;;;;;;;;525340;28;1325;-65
2022/09/24 13:18:39;;;;;;;6.88;4.10;;;;;;;;;;525839;28;1406;-65
2022/09/24 13:19:00;;;;;;;7.30;4.53;;;;;;;;;;525499;28;1375;-65
2022/09/24 13:19:26;;;;;;;6.65;4.25;;;;;;;;;;528959;27;1572;-66
2022/09/24 13:19:43;;;;;;;5.93;3.92;;;;;;;;;;526533;27;1168;-65
2022/09/24 13:20:05;;;;;;;7.63;4.00;;;;;;;;;;526849;27;1289;-66
2022/09/24 13:20:27;;;;;;;7.05;3.78;;;;;;;;;;528188;27;1231;-65
2022/09/24 13:20:42;;;;;;;7.07;4.10;;;;;;;;;;524680;28;1379;-65
2022/09/24 13:21:01;;;;;;;7.50;4.10;;;;;;;;;;523293;28;1339;-65
2022/09/24 13:21:21;;;;;;;6.03;4.00;;;;;;;;;;522077;28;1468;-66
2022/09/24 13:21:39;;;;;;;7.78;4.45;;;;;;;;;;521798;28;1121;-65
2022/09/24 13:21:57;;;;;;;5.82;4.38;;;;;;;;;;522618;28;1905;-66
2022/09/24 13:22:21;;;;;;;7.88;4.78;;;;;;;;;;521563;28;1513;-66
2022/09/24 13:22:37;;;;;;;7.68;4.82;;;;;;;;;;521776;28;1410;-65
2022/09/24 13:23:11;;;;;;;8.48;4.72;;;;;;;;;;523099;28;1246;-65
2022/09/24 13:23:28;;;;;;;9.95;5.05;;;;;;;;;;524084;28;1333;-65
2022/09/24 13:23:46;;;;;;;6.88;4.70;;;;;;;;;;522839;28;1042;-65
2022/09/24 13:24:10;;;;;;;5.90;4.63;;;;;;;;;;519751;28;1321;-66
2022/09/24 13:24:32;;;;;;;7.60;4.57;;;;;;;;;;520358;28;1514;-66
2022/09/24 13:25:03;;;;;;;8.68;4.60;;;;;;;;;;522860;28;1113;-65
2022/09/24 13:25:22;;;;;;;9.05;4.78;;;;;;;;;;523391;28;1336;-65
2022/09/24 13:25:38;;;;;;;9.02;4.50;;;;;;;;;;522332;28;1077;-66
2022/09/24 13:25:58;;;;;;;9.13;4.70;;;;;;;;;;523748;28;1153;-66
2022/09/24 13:26:27;;;;;;;9.25;4.72;;;;;;;;;;524483;28;1533;-66
2022/09/24 13:26:42;;;;;;;8.38;4.50;;;;;;;;;;524578;28;1104;-66
2022/09/24 13:27:28;;;;;;;8.65;4.80;;;;;;;;;;524807;28;1187;-66
2022/09/24 13:27:55;;;;;;;8.75;4.50;;;;;;;;;;515202;28;1303;-65
2022/09/24 13:28:20;;;;;;;8.52;4.47;;;;;;;;;;524356;28;1391;-66
2022/09/24 13:28:59;;;;;;;9.27;4.47;;;;;;;;;;526427;28;1403;-66
2022/09/24 13:29:25;;;;;;;8.80;4.63;;;;;;;;;;523606;28;1305;-66
2022/09/24 13:29:42;;;;;;;6.88;4.88;;;;;;;;;;524677;27;1157;-66
2022/09/24 13:30:15;;;;;;;8.23;4.88;;;;;;;;;;525404;28;1272;-65
2022/09/24 13:30:35;;;;;;;9.05;4.70;;;;;;;;;;520939;28;4630;-65
2022/09/24 13:31:14;;;;;;;9.85;4.60;;;;;;;;;;522334;28;1292;-65
2022/09/24 13:31:43;;;;;;;8.20;4.60;;;;;;;;;;523171;28;1517;-65
2022/09/24 13:32:01;;;;;;;8.18;4.70;;;;;;;;;;521776;28;1364;-65
2022/09/24 13:32:20;;;;;;;6.53;4.70;;;;;;;;;;523043;28;1550;-65
2022/09/24 13:32:42;;;;;;;7.63;4.55;;;;;;;;;;522249;28;1613;-65
2022/09/24 13:33:11;;;;;;;7.68;4.60;;;;;;;;;;524040;28;1343;-66
2022/09/24 13:33:30;;;;;;;10.35;4.90;;;;;;;;;;521458;28;1312;-65
2022/09/24 13:33:51;;;;;;;8.55;4.82;;;;;;;;;;521038;28;1368;-65
2022/09/24 13:34:09;;;;;;;9.07;4.80;;;;;;;;;;523447;28;1092;-65
2022/09/24 13:34:30;;;;;;;9.07;4.55;;;;;;;;;;523527;28;1434;-65
2022/09/24 13:34:46;;;;;;;9.23;4.90;;;;;;;;;;525096;28;1191;-65
2022/09/24 13:35:06;;;;;;;9.10;5.00;;;;;;;;;;525728;28;1370;-65
2022/09/24 13:35:27;;;;;;;6.65;4.55;;;;;;;;;;527069;27;1073;-65
2022/09/24 13:36:05;;;;;;;7.10;4.72;;;;;;;;;;527178;27;1230;-65
2022/09/24 13:36:37;;;;;;;8.55;5.50;;;;;;;;;;527523;27;1211;-65
2022/09/24 13:37:33;;;;;;;9.10;5.40;;;;;;;;;;527864;27;1245;-65
2022/09/24 13:38:02;;;;;;;7.28;4.70;;;;;;;;;;518665;28;1082;-65
2022/09/24 13:38:27;;;;;;;8.85;4.82;;;;;;;;;;526333;27;1111;-65
2022/09/24 13:38:56;;;;;;;9.35;4.60;;;;;;;;;;526052;27;1151;-65
2022/09/24 13:39:28;;;;;;;8.43;4.40;;;;;;;;;;524989;28;1406;-65
2022/09/24 13:40:06;;;;;;;7.50;4.47;;;;;;;;;;524007;28;1156;-66
2022/09/24 13:40:26;;;;;;;9.65;4.60;;;;;;;;;;523935;28;1133;-66
2022/09/24 13:40:48;;;;;;;8.82;4.32;;;;;;;;;;523658;28;1379;-65
2022/09/24 13:41:21;;;;;;;6.57;4.30;;;;;;;;;;524201;28;1201;-65
2022/09/24 13:41:49;;;;;;;8.18;4.25;;;;;;;;;;523845;28;2404;-66
2022/09/24 13:42:13;;;;;;;6.70;4.30;;;;;;;;;;524630;28;1909;-65
2022/09/24 13:42:42;;;;;;;5.53;3.90;;;;;;;;;;523360;27;1317;-65
2022/09/24 13:43:06;;;;;;;7.43;4.40;;;;;;;;;;524859;28;1370;-65
2022/09/24 13:44:01;;;;;;;8.50;4.30;;;;;;;;;;524792;28;1498;-65
2022/09/24 13:44:30;;;;;;;9.85;4.45;;;;;;;;;;514391;28;1273;-65
2022/09/24 13:44:51;;;;;;;6.75;4.20;;;;;;;;;;515345;28;1116;-65
2022/09/24 13:45:23;;;;;;;8.25;4.43;;;;;;;;;;511640;28;2229;-64
2022/09/24 13:45:41;;;;;;;8.60;4.72;;;;;;;;;;517141;28;4384;-65
2022/09/24 13:45:57;;;;;;;8.82;4.40;;;;;;;;;;516757;28;1226;-65
2022/09/24 13:46:16;;;;;;;7.25;4.35;;;;;;;;;;516182;28;1253;-65
2022/09/24 13:46:34;;;;;;;7.35;4.35;;;;;;;;;;517094;28;1263;-65
2022/09/24 13:46:56;;;;;;;7.88;4.50;;;;;;;;;;517445;28;1382;-65
2022/09/24 13:47:20;;;;;;;7.00;4.43;;;;;;;;;;523299;27;1137;-65
2022/09/24 13:47:41;;;;;;;7.45;4.95;;;;;;;;;;523599;27;1119;-66
2022/09/24 13:48:00;;;;;;;9.18;5.30;;;;;;;;;;524413;27;1188;-65
2022/09/24 13:48:39;;;;;;;6.72;5.18;;;;;;;;;;527563;27;1297;-65
2022/09/24 13:49:07;;;;;;;6.03;4.30;;;;;;;;;;526295;27;1506;-66
2022/09/24 13:49:23;;;;;;;7.88;4.60;;;;;;;;;;525905;27;1299;-65
2022/09/24 13:49:43;;;;;;;8.40;4.85;;;;;;;;;;525942;27;1283;-65
2022/09/24 13:50:14;;;;;;;7.95;4.85;;;;;;;;;;526537;27;1246;-66
2022/09/24 13:50:32;;;;;;;7.68;4.90;;;;;;;;;;526098;27;1534;-65
2022/09/24 13:50:51;;;;;;;8.63;4.70;;;;;;;;;;526390;27;1280;-66
2022/09/24 13:51:11;;;;;;;8.93;4.57;;;;;;;;;;526261;27;1274;-65
2022/09/24 13:51:30;;;;;;;9.10;4.90;;;;;;;;;;525984;27;1262;-66
2022/09/24 13:51:56;;;;;;;7.25;4.70;;;;;;;;;;523382;28;1378;-65
2022/09/24 13:52:27;;;;;;;9.40;5.10;;;;;;;;;;522599;28;1360;-65
2022/09/24 13:52:58;;;;;;;7.03;4.85;;;;;;;;;;524829;28;1312;-65
2022/09/24 13:53:35;;;;;;;8.20;4.85;;;;;;;;;;523609;28;1214;-65
2022/09/24 13:54:02;;;;;;;8.05;4.90;;;;;;;;;;519942;28;1409;-65
2022/09/24 13:54:23;;;;;;;6.22;4.78;;;;;;;;;;523072;28;1344;-65
2022/09/24 13:54:50;;;;;;;8.23;4.57;;;;;;;;;;520708;28;1430;-65
2022/09/24 13:55:16;;;;;;;7.03;4.60;;;;;;;;;;520776;28;1216;-66
2022/09/24 13:55:44;;;;;;;5.68;4.47;;;;;;;;;;521860;28;1242;-65
2022/09/24 13:56:03;;;;;;;6.75;4.18;;;;;;;;;;522217;28;1450;-65
2022/09/24 13:56:20;;;;;;;9.73;4.80;;;;;;;;;;520592;28;1333;-65
2022/09/24 13:56:35;;;;;;;8.05;4.70;;;;;;;;;;523184;28;1443;-66
2022/09/24 13:57:09;;;;;;;8.35;4.80;;;;;;;;;;520324;28;1414;-65
2022/09/24 13:57:26;;;;;;;7.53;4.90;;;;;;;;;;524670;28;1394;-66
2022/09/24 13:57:46;;;;;;;6.85;4.78;;;;;;;;;;523091;28;1456;-66
2022/09/24 13:58:01;;;;;;;6.20;4.50;;;;;;;;;;519997;28;1788;-65
2022/09/24 13:58:40;;;;;;;6.53;4.60;;;;;;;;;;521454;28;1261;-65
2022/09/24 13:59:10;;;;;;;7.13;4.82;;;;;;;;;;521369;28;1342;-65
2022/09/24 13:59:25;;;;;;;7.00;4.82;;;;;;;;;;521552;28;1403;-65
2022/09/24 13:59:40;;;;;;;7.80;4.60;;;;;;;;;;521564;28;1151;-66
2022/09/24 14:00:15;;;;;;;8.13;4.60;;;;;;;;;;524612;27;1403;-66
2022/09/24 14:00:31;;;;;;;8.38;4.75;;;;;;;;;;522182;28;4472;-66
2022/09/24 14:00:47;;;;;;;7.45;4.50;;;;;;;;;;523250;28;1453;-65
2022/09/24 14:01:15;;;;;;;7.18;4.63;;;;;;;;;;522806;28;1801;-66
2022/09/24 14:01:38;;;;;;;10.55;4.90;;;;;;;;;;521757;28;1113;-66
2022/09/24 14:01:53;;;;;;;8.80;4.70;;;;;;;;;;523589;28;1961;-66
2022/09/24 14:02:25;;;;;;;7.77;4.70;;;;;;;;;;521967;28;1290;-66
2022/09/24 14:02:57;;;;;;;7.80;4.60;;;;;;;;;;523989;28;1414;-65
2022/09/24 14:03:24;;;;;;;8.25;4.75;;;;;;;;;;523040;28;1292;-66
2022/09/24 14:03:40;;;;;;;6.00;4.15;;;;;;;;;;519876;28;1227;-65
2022/09/24 14:04:04;;;;;;;5.72;4.30;;;;;;;;;;519390;28;1300;-65
2022/09/24 14:04:21;;;;;;;7.53;5.05;;;;;;;;;;518667;28;1454;-65
2022/09/24 14:04:41;;;;;;;9.82;5.00;;;;;;;;;;519028;28;1329;-66
2022/09/24 14:04:59;;;;;;;6.93;4.60;;;;;;;;;;519866;28;1256;-65
2022/09/24 14:05:16;;;;;;;8.45;4.60;;;;;;;;;;520317;28;1334;-66
2022/09/24 14:05:35;;;;;;;8.85;4.60;;;;;;;;;;519140;28;1414;-66
2022/09/24 14:05:51;;;;;;;7.05;4.82;;;;;;;;;;523337;28;1917;-65
2022/09/24 14:06:12;;;;;;;6.57;4.72;;;;;;;;;;521813;28;1302;-66
2022/09/24 14:06:35;;;;;;;7.43;4.75;;;;;;;;;;519801;28;1360;-65
2022/09/24 14:06:54;;;;;;;7.15;4.75;;;;;;;;;;520470;28;1911;-65
2022/09/24 14:07:09;;;;;;;6.20;4.90;;;;;;;;;;519422;28;1456;-65
2022/09/24 14:07:26;;;;;;;6.13;4.67;;;;;;;;;;521830;28;1252;-65
2022/09/24 14:07:42;;;;;;;7.78;4.72;;;;;;;;;;519934;28;1205;-65
2022/09/24 14:08:11;;;;;;;7.78;4.80;;;;;;;;;;520080;28;1236;-66
2022/09/24 14:08:28;;;;;;;8.65;4.82;;;;;;;;;;523263;28;1320;-66
2022/09/24 14:08:45;;;;;;;7.38;5.00;;;;;;;;;;520945;28;1251;-65
2022/09/24 14:09:01;;;;;;;6.95;5.03;;;;;;;;;;519180;28;1522;-66
2022/09/24 14:09:31;;;;;;;7.37;4.90;;;;;;;;;;522467;28;1371;-66
2022/09/24 14:09:47;;;;;;;8.95;4.80;;;;;;;;;;517748;28;1454;-66
2022/09/24 14:10:12;;;;;;;6.47;4.78;;;;;;;;;;518040;28;1369;-66
2022/09/24 14:10:28;;;;;;;6.82;4.72;;;;;;;;;;516360;28;1234;-65
2022/09/24 14:10:47;;;;;;;7.07;4.78;;;;;;;;;;517799;28;1394;-65
2022/09/24 14:11:13;;;;;;;7.07;4.80;;;;;;;;;;516956;28;1169;-65
2022/09/24 14:11:29;;;;;;;6.50;4.95;;;;;;;;;;518362;28;1322;-66
2022/09/24 14:11:52;;;;;;;6.33;4.70;;;;;;;;;;522436;28;1258;-66
2022/09/24 14:12:17;;;;;;;7.55;4.72;;;;;;;;;;522580;28;1429;-65
2022/09/24 14:12:33;;;;;;;8.67;4.57;;;;;;;;;;523607;28;1266;-66
2022/09/24 14:12:58;;;;;;;8.27;4.80;;;;;;;;;;525676;27;1282;-65
2022/09/24 14:13:16;;;;;;;8.80;5.00;;;;;;;;;;525206;27;1260;-66
2022/09/24 14:13:37;;;;;;;7.72;4.90;;;;;;;;;;524394;27;1064;-66
2022/09/24 14:13:55;;;;;;;6.75;4.60;;;;;;;;;;525269;27;1141;-66
2022/09/24 14:14:17;;;;;;;7.05;4.75;;;;;;;;;;522203;28;1337;-66
2022/09/24 14:14:34;;;;;;;6.93;4.90;;;;;;;;;;523434;28;1334;-65
2022/09/24 14:14:57;;;;;;;6.93;4.80;;;;;;;;;;523391;28;1265;-65
2022/09/24 14:15:15;;;;;;;7.78;4.90;;;;;;;;;;517777;28;4796;-65
2022/09/24 14:15:30;;;;;;;7.32;4.85;;;;;;;;;;521062;28;1450;-65
2022/09/24 14:16:09;;;;;;;7.47;4.87;;;;;;;;;;519356;28;1301;-65
2022/09/24 14:16:25;;;;;;;7.68;5.00;;;;;;;;;;514035;28;1094;-66
2022/09/24 14:16:40;;;;;;;7.18;5.10;;;;;;;;;;517673;28;1271;-66
2022/09/24 14:17:11;;;;;;;6.33;4.80;;;;;;;;;;520520;28;1337;-67
2022/09/24 14:17:26;;;;;;;7.13;4.60;;;;;;;;;;520816;28;1068;-66
2022/09/24 14:17:42;;;;;;;7.00;4.50;;;;;;;;;;520309;28;1302;-66
2022/09/24 14:17:58;;;;;;;6.72;4.45;;;;;;;;;;523211;28;1355;-66
2022/09/24 14:18:13;;;;;;;9.02;4.75;;;;;;;;;;522701;28;1481;-66
2022/09/24 14:18:29;;;;;;;8.48;5.10;;;;;;;;;;522211;28;1435;-66
2022/09/24 14:18:45;;;;;;;7.13;4.87;;;;;;;;;;522725;28;1429;-66
2022/09/24 14:19:04;;;;;;;8.00;4.60;;;;;;;;;;526318;27;1107;-65
2022/09/24 14:19:19;;;;;;;7.55;4.70;;;;;;;;;;526032;28;1472;-66
2022/09/24 14:19:35;;;;;;;6.20;4.70;;;;;;;;;;524483;27;1410;-66
2022/09/24 14:19:56;;;;;;;7.23;4.67;;;;;;;;;;525455;27;1770;-66
2022/09/24 14:20:13;;;;;;;6.40;4.63;;;;;;;;;;526009;27;1443;-66
2022/09/24 14:20:34;;;;;;;7.70;4.70;;;;;;;;;;524372;28;1410;-66
2022/09/24 14:21:12;;;;;;;8.05;4.90;;;;;;;;;;523512;28;1397;-66
2022/09/24 14:21:39;;;;;;;6.82;4.70;;;;;;;;;;523432;28;1163;-66
2022/09/24 14:21:57;;;;;;;7.57;4.72;;;;;;;;;;523203;28;2020;-67
2022/09/24 14:22:22;;;;;;;8.60;4.70;;;;;;;;;;523598;28;1056;-66
2022/09/24 14:22:41;;;;;;;10.23;4.60;;;;;;;;;;523516;28;1163;-66
2022/09/24 14:22:56;;;;;;;6.25;4.63;;;;;;;;;;524215;28;1252;-66
2022/09/24 14:23:19;;;;;;;7.00;4.60;;;;;;;;;;522557;28;1217;-66
2022/09/24 14:23:40;;;;;;;8.98;4.63;;;;;;;;;;523993;28;1410;-66
2022/09/24 14:23:59;;;;;;;8.00;4.78;;;;;;;;;;522868;28;1080;-66
2022/09/24 14:24:33;;;;;;;7.88;4.63;;;;;;;;;;523478;28;1369;-66
2022/09/24 14:24:58;;;;;;;6.25;4.80;;;;;;;;;;523139;28;1224;-66
2022/09/24 14:25:24;;;;;;;6.93;4.72;;;;;;;;;;523026;28;1224;-66
2022/09/24 14:25:39;;;;;;;6.57;4.65;;;;;;;;;;525208;27;1401;-66
2022/09/24 14:25:56;;;;;;;6.30;4.63;;;;;;;;;;525014;27;1142;-66
2022/09/24 14:26:33;;;;;;;5.80;4.50;;;;;;;;;;524470;27;1268;-66
2022/09/24 14:26:57;;;;;;;6.20;4.47;;;;;;;;;;522484;28;1357;-66
2022/09/24 14:27:18;;;;;;;8.40;4.55;;;;;;;;;;522661;28;1132;-66
2022/09/24 14:27:39;;;;;;;6.53;4.47;;;;;;;;;;523086;28;1085;-66
2022/09/24 14:27:58;;;;;;;6.70;4.50;;;;;;;;;;524378;28;1256;-66
2022/09/24 14:28:14;;;;;;;7.63;4.70;;;;;;;;;;522284;28;1065;-66
2022/09/24 14:28:31;;;;;;;8.02;4.75;;;;;;;;;;520488;28;1310;-66
2022/09/24 14:28:47;;;;;;;8.15;4.47;;;;;;;;;;522560;28;1304;-65
2022/09/24 14:29:07;;;;;;;6.55;4.50;;;;;;;;;;523228;28;1382;-67
2022/09/24 14:29:28;;;;;;;5.43;4.25;;;;;;;;;;523228;28;1386;-66
2022/09/24 14:29:45;;;;;;;7.47;4.40;;;;;;;;;;520492;28;1488;-66
2022/09/24 14:30:07;;;;;;;8.55;4.60;;;;;;;;;;519771;28;1686;-66
2022/09/24 14:30:25;;;;;;;6.03;4.45;;;;;;;;;;521452;28;4275;-66
2022/09/24 14:30:54;;;;;;;6.00;4.57;;;;;;;;;;522251;28;1165;-66
2022/09/24 14:31:09;;;;;;;6.60;4.57;;;;;;;;;;519993;28;1316;-66
2022/09/24 14:31:25;;;;;;;7.37;4.63;;;;;;;;;;522459;28;1478;-66
2022/09/24 14:32:21;;;;;;;7.22;4.70;;;;;;;;;;521951;28;1260;-66
2022/09/24 14:32:39;;;;;;;7.45;4.60;;;;;;;;;;512346;28;1230;-66
2022/09/24 14:33:02;;;;;;;7.53;4.70;;;;;;;;;;523635;27;1339;-66
2022/09/24 14:33:21;;;;;;;5.93;4.70;;;;;;;;;;523993;28;1387;-65
2022/09/24 14:33:38;;;;;;;7.10;4.90;;;;;;;;;;524007;28;1113;-66
2022/09/24 14:33:54;;;;;;;9.38;5.15;;;;;;;;;;524012;28;1521;-66
2022/09/24 14:34:24;;;;;;;9.40;4.80;;;;;;;;;;523390;28;1429;-66
2022/09/24 14:34:42;;;;;;;7.43;4.72;;;;;;;;;;522494;28;1113;-66
2022/09/24 14:35:11;;;;;;;6.93;5.18;;;;;;;;;;521663;28;1704;-66
2022/09/24 14:35:33;;;;;;;7.30;5.20;;;;;;;;;;521507;28;1391;-67
2022/09/24 14:35:51;;;;;;;7.70;4.90;;;;;;;;;;521689;28;1248;-66
2022/09/24 14:36:11;;;;;;;8.93;4.90;;;;;;;;;;521051;28;1375;-66
2022/09/24 14:36:28;;;;;;;9.57;5.18;;;;;;;;;;518386;28;1427;-66
2022/09/24 14:36:43;;;;;;;7.38;5.07;;;;;;;;;;518516;28;1250;-66
2022/09/24 14:37:09;;;;;;;8.98;5.30;;;;;;;;;;519526;28;1395;-66
2022/09/24 14:37:31;;;;;;;9.48;5.40;;;;;;;;;;519091;28;1085;-66
2022/09/24 14:37:53;;;;;;;8.77;5.15;;;;;;;;;;520740;28;1351;-66
2022/09/24 14:38:23;;;;;;;9.55;5.32;;;;;;;;;;521903;28;1470;-66
2022/09/24 14:38:52;;;;;;;8.27;5.18;;;;;;;;;;519666;28;1367;-66
2022/09/24 14:39:10;;;;;;;9.20;5.22;;;;;;;;;;523234;28;1265;-66
2022/09/24 14:39:28;;;;;;;7.32;5.30;;;;;;;;;;524241;28;1343;-66
2022/09/24 14:39:46;;;;;;;6.45;4.93;;;;;;;;;;521728;28;1209;-66
2022/09/24 14:40:06;;;;;;;7.40;5.00;;;;;;;;;;522473;28;1392;-66
2022/09/24 14:40:22;;;;;;;9.85;5.03;;;;;;;;;;522898;28;1097;-66
2022/09/24 14:40:43;;;;;;;9.25;4.95;;;;;;;;;;524690;28;1295;-66
2022/09/24 14:41:18;;;;;;;7.78;5.25;;;;;;;;;;521445;28;3417;-66
2022/09/24 14:41:35;;;;;;;6.38;4.90;;;;;;;;;;519783;28;1113;-66
2022/09/24 14:41:51;;;;;;;6.38;4.80;;;;;;;;;;522686;28;1124;-67
2022/09/24 14:42:16;;;;;;;7.05;4.75;;;;;;;;;;523440;28;1961;-66
2022/09/24 14:42:39;;;;;;;8.98;4.82;;;;;;;;;;523059;28;1378;-66
2022/09/24 14:42:58;;;;;;;8.25;4.90;;;;;;;;;;523746;28;1220;-65
2022/09/24 14:43:30;;;;;;;8.02;4.78;;;;;;;;;;522198;28;1282;-66
2022/09/24 14:44:00;;;;;;;7.65;4.80;;;;;;;;;;522420;28;1343;-66
2022/09/24 14:44:24;;;;;;;7.88;4.80;;;;;;;;;;520075;28;1561;-66
2022/09/24 14:44:44;;;;;;;9.77;4.97;;;;;;;;;;519749;28;1289;-65
2022/09/24 14:45:03;;;;;;;7.10;4.78;;;;;;;;;;520358;28;1371;-65
2022/09/24 14:45:46;;;;;;;7.53;4.90;;;;;;;;;;522022;28;4214;-66
2022/09/24 14:46:30;;;;;;;7.90;4.88;;;;;;;;;;520463;28;1173;-66
2022/09/24 14:46:57;;;;;;;8.25;4.75;;;;;;;;;;523842;28;1319;-66
2022/09/24 14:47:39;;;;;;;6.60;4.85;;;;;;;;;;521645;28;1573;-66
2022/09/24 14:48:17;;;;;;;6.78;5.15;;;;;;;;;;518919;28;1464;-65
2022/09/24 14:48:34;;;;;;;7.13;5.00;;;;;;;;;;519374;28;1414;-66
2022/09/24 14:48:51;;;;;;;8.48;5.25;;;;;;;;;;519743;28;1263;-65
2022/09/24 14:49:28;;;;;;;8.15;5.20;;;;;;;;;;520833;28;1280;-65
2022/09/24 14:49:44;;;;;;;7.55;5.10;;;;;;;;;;522085;28;1379;-65
2022/09/24 14:50:02;;;;;;;6.60;5.03;;;;;;;;;;522268;28;1309;-65
2022/09/24 14:50:26;;;;;;;6.85;5.00;;;;;;;;;;521472;28;1228;-66
2022/09/24 14:50:41;;;;;;;7.90;5.22;;;;;;;;;;519891;28;1211;-65
2022/09/24 14:50:56;;;;;;;8.98;5.40;;;;;;;;;;521826;28;1469;-65
2022/09/24 14:51:29;;;;;;;10.03;5.40;;;;;;;;;;522258;28;1458;-65
2022/09/24 14:51:51;;;;;;;6.65;4.82;;;;;;;;;;520868;28;1172;-65
2022/09/24 14:52:26;;;;;;;8.50;5.40;;;;;;;;;;522477;28;1348;-66
2022/09/24 14:52:54;;;;;;;7.28;5.45;;;;;;;;;;523447;28;1429;-66
2022/09/24 14:53:28;;;;;;;7.95;5.47;;;;;;;;;;526210;27;1010;-66
2022/09/24 14:53:43;;;;;;;6.65;5.72;;;;;;;;;;525071;27;1311;-65
2022/09/24 14:54:02;;;;;;;6.80;5.63;;;;;;;;;;525608;28;1160;-66
2022/09/24 14:54:27;;;;;;;7.57;5.63;;;;;;;;;;527011;27;1395;-66
2022/09/24 14:54:42;;;;;;;7.70;5.70;;;;;;;;;;525962;27;1263;-66
2022/09/24 14:55:19;;;;;;;6.63;5.83;;;;;;;;;;526528;27;1647;-66
2022/09/24 14:55:42;;;;;;;7.53;6.00;;;;;;;;;;525993;27;1180;-66
2022/09/24 14:55:57;;;;;;;9.15;6.13;;;;;;;;;;526009;27;1499;-65
2022/09/24 14:56:20;;;;;;;9.20;6.10;;;;;;;;;;525835;27;1244;-66